Time;durP1;ratioP1;P1;durP2;ratioP2;P2;SDS_P1;SDS_P2;PMS_P1;PMS_P2;Temp;Humidity;BMP_temperature;BMP_pressure;BME280_temperature;BME280_humidity;BME280_pressure;Samples;Min_cycle;Max_cycle;Signal;HPM_P1;HPM_P2
2024/04/07 00:00:50;;;;;;;6.30;5.30;;;;;;;;;;5073586;28;20209;-71
2024/04/07 00:03:18;;;;;;;6.57;6.17;;;;;;;;;;5076044;28;20471;-68
2024/04/07 00:05:44;;;;;;;6.53;5.97;;;;;;;;;;5074635;28;21407;-71
2024/04/07 00:08:10;;;;;;;5.80;5.40;;;;;;;;;;5077273;28;20489;-70
2024/04/07 00:10:36;;;;;;;6.13;5.63;;;;;;;;;;5074578;28;20545;-66
2024/04/07 00:13:02;;;;;;;6.47;6.00;;;;;;;;;;5078222;28;20448;-71
2024/04/07 00:15:28;;;;;;;7.00;6.50;;;;;;;;;;5076118;28;20824;-71
2024/04/07 00:17:56;;;;;;;6.40;5.93;;;;;;;;;;5071121;28;20459;-70
2024/04/07 00:20:21;;;;;;;7.00;6.40;;;;;;;;;;5077346;28;20204;-70
2024/04/07 00:22:48;;;;;;;7.40;6.00;;;;;;;;;;5071557;28;21363;-68
2024/04/07 00:25:16;;;;;;;6.17;5.67;;;;;;;;;;5075706;28;20816;-69
2024/04/07 00:27:43;;;;;;;6.40;6.00;;;;;;;;;;5077708;28;20566;-70
2024/04/07 00:30:08;;;;;;;6.50;6.10;;;;;;;;;;5076188;28;20440;-69
2024/04/07 00:32:35;;;;;;;8.33;5.17;;;;;;;;;;5073852;28;20459;-71
2024/04/07 00:35:03;;;;;;;7.00;5.87;;;;;;;;;;5075339;28;20730;-70
2024/04/07 00:37:29;;;;;;;6.87;6.30;;;;;;;;;;5076847;28;20456;-71
2024/04/07 00:39:55;;;;;;;5.90;5.50;;;;;;;;;;5076313;28;20464;-71
2024/04/07 00:42:22;;;;;;;5.50;5.10;;;;;;;;;;5076791;28;20474;-70
2024/04/07 00:44:48;;;;;;;6.63;6.23;;;;;;;;;;5075545;28;21134;-71
2024/04/07 00:47:14;;;;;;;5.87;5.30;;;;;;;;;;5074920;28;20466;-71
2024/04/07 00:49:41;;;;;;;6.27;5.70;;;;;;;;;;5074590;28;20440;-71
2024/04/07 00:52:09;;;;;;;6.90;6.30;;;;;;;;;;5074071;28;20448;-70
2024/04/07 00:54:34;;;;;;;6.53;6.03;;;;;;;;;;5075195;28;20456;-71
2024/04/07 00:57:01;;;;;;;6.23;5.83;;;;;;;;;;5077786;28;20498;-70
2024/04/07 00:59:26;;;;;;;6.30;5.70;;;;;;;;;;5076717;28;20206;-71
2024/04/07 01:01:53;;;;;;;6.80;6.20;;;;;;;;;;5071071;28;20480;-68
2024/04/07 01:04:18;;;;;;;5.77;5.47;;;;;;;;;;5077128;28;20218;-69
2024/04/07 01:06:45;;;;;;;6.50;6.10;;;;;;;;;;5074479;28;20961;-70
2024/04/07 01:09:12;;;;;;;6.23;5.70;;;;;;;;;;5073100;28;20206;-69
2024/04/07 01:11:38;;;;;;;6.10;5.60;;;;;;;;;;5073267;28;20456;-69
2024/04/07 01:14:03;;;;;;;5.80;5.40;;;;;;;;;;5073794;28;20449;-71
2024/04/07 01:16:30;;;;;;;5.67;5.20;;;;;;;;;;5072592;28;20452;-70
2024/04/07 01:18:55;;;;;;;6.13;5.73;;;;;;;;;;5074978;28;20721;-68
2024/04/07 01:21:24;;;;;;;5.17;4.77;;;;;;;;;;5073967;28;20463;-71
2024/04/07 01:23:51;;;;;;;6.63;6.03;;;;;;;;;;5070366;28;20257;-70
2024/04/07 01:26:17;;;;;;;6.73;6.20;;;;;;;;;;5076609;28;20486;-70
2024/04/07 01:28:43;;;;;;;6.03;5.63;;;;;;;;;;5076278;28;20448;-68
2024/04/07 01:31:09;;;;;;;6.67;6.00;;;;;;;;;;5068898;28;20448;-70
2024/04/07 01:33:35;;;;;;;5.33;5.00;;;;;;;;;;5073182;28;20202;-71
2024/04/07 01:36:01;;;;;;;6.23;5.80;;;;;;;;;;5068312;28;20907;-71
2024/04/07 01:38:27;;;;;;;7.77;6.10;;;;;;;;;;5068038;28;20214;-71
2024/04/07 01:40:54;;;;;;;6.50;5.90;;;;;;;;;;5074125;28;20444;-71
2024/04/07 01:43:20;;;;;;;5.63;5.13;;;;;;;;;;5072480;28;20233;-68
2024/04/07 01:45:46;;;;;;;6.77;6.17;;;;;;;;;;5077735;28;20483;-71
2024/04/07 01:48:12;;;;;;;5.90;5.50;;;;;;;;;;5076148;28;20259;-71
2024/04/07 01:50:41;;;;;;;6.07;5.43;;;;;;;;;;5082880;28;21402;-66
2024/04/07 01:53:06;;;;;;;8.23;6.30;;;;;;;;;;5076015;28;20209;-69
2024/04/07 01:55:33;;;;;;;6.60;6.00;;;;;;;;;;5077102;28;20450;-71
2024/04/07 01:58:00;;;;;;;5.50;5.10;;;;;;;;;;5080049;28;20216;-72
2024/04/07 02:00:27;;;;;;;6.50;5.10;;;;;;;;;;5078159;28;20830;-71
2024/04/07 02:02:52;;;;;;;7.50;5.70;;;;;;;;;;5076221;28;20534;-68
2024/04/07 02:05:19;;;;;;;7.10;5.67;;;;;;;;;;5076909;28;20480;-71
2024/04/07 02:07:44;;;;;;;6.20;5.70;;;;;;;;;;5077575;28;20209;-70
2024/04/07 02:10:11;;;;;;;6.47;5.97;;;;;;;;;;5082235;28;20479;-70
2024/04/07 02:12:37;;;;;;;5.60;5.00;;;;;;;;;;5076554;28;20247;-70
2024/04/07 02:15:05;;;;;;;5.90;5.23;;;;;;;;;;5075651;28;20452;-70
2024/04/07 02:17:33;;;;;;;5.30;4.70;;;;;;;;;;5076784;28;20213;-68
2024/04/07 02:19:59;;;;;;;5.13;4.80;;;;;;;;;;5074671;28;20451;-69
2024/04/07 02:22:25;;;;;;;5.60;5.20;;;;;;;;;;5078719;28;20490;-69
2024/04/07 02:24:51;;;;;;;5.60;5.20;;;;;;;;;;5078341;28;20483;-69
2024/04/07 02:27:17;;;;;;;6.70;6.00;;;;;;;;;;5077971;28;20221;-71
2024/04/07 02:29:44;;;;;;;6.30;5.70;;;;;;;;;;5078754;28;20457;-71
2024/04/07 02:32:11;;;;;;;5.53;5.10;;;;;;;;;;5082542;28;20455;-72
2024/04/07 02:34:37;;;;;;;6.43;5.27;;;;;;;;;;5075884;28;20479;-71
2024/04/07 02:37:03;;;;;;;6.43;5.70;;;;;;;;;;5072838;28;20492;-70
2024/04/07 02:39:29;;;;;;;8.73;5.30;;;;;;;;;;5079482;28;20486;-71
2024/04/07 02:41:55;;;;;;;5.97;5.53;;;;;;;;;;5081216;28;20201;-69
2024/04/07 02:48:04;;;;;;;6.03;5.63;;;;;;;;;;5077967;28;20512;-71
2024/04/07 02:49:55;;;;;;;6.00;5.53;;;;;;;;;;5077202;28;20446;-70
2024/04/07 02:52:21;;;;;;;5.60;5.20;;;;;;;;;;5072686;28;20470;-68
2024/04/07 02:54:48;;;;;;;6.17;5.60;;;;;;;;;;5073366;28;20457;-71
2024/04/07 02:57:13;;;;;;;6.70;6.30;;;;;;;;;;5075218;28;20448;-71
2024/04/07 02:59:40;;;;;;;5.80;5.40;;;;;;;;;;5079477;28;20450;-70
2024/04/07 03:02:05;;;;;;;6.73;5.90;;;;;;;;;;5076580;28;20248;-68
2024/04/07 03:04:33;;;;;;;6.13;5.53;;;;;;;;;;5079016;28;20529;-71
2024/04/07 03:07:00;;;;;;;6.30;5.80;;;;;;;;;;5079190;28;20524;-69
2024/04/07 03:09:27;;;;;;;6.53;5.97;;;;;;;;;;5083876;28;20451;-67
2024/04/07 03:11:52;;;;;;;6.70;6.10;;;;;;;;;;5072881;28;20900;-70
2024/04/07 03:14:19;;;;;;;5.83;5.43;;;;;;;;;;5074604;28;20453;-71
2024/04/07 03:16:46;;;;;;;6.20;5.67;;;;;;;;;;5076421;28;20241;-70
2024/04/07 03:19:12;;;;;;;6.57;5.97;;;;;;;;;;5077798;28;20451;-71
2024/04/07 03:21:37;;;;;;;5.80;5.40;;;;;;;;;;5076118;28;20492;-71
2024/04/07 03:24:06;;;;;;;7.07;6.57;;;;;;;;;;5077745;28;20486;-71
2024/04/07 03:26:31;;;;;;;10.10;6.10;;;;;;;;;;5082304;28;20217;-70
2024/04/07 03:28:58;;;;;;;6.70;5.33;;;;;;;;;;5074414;28;20448;-70
2024/04/07 03:31:23;;;;;;;7.70;5.60;;;;;;;;;;5075334;28;20206;-71
2024/04/07 03:33:50;;;;;;;6.07;5.50;;;;;;;;;;5074288;28;20694;-67
2024/04/07 03:36:15;;;;;;;5.87;5.37;;;;;;;;;;5073315;28;20218;-70
2024/04/07 03:38:42;;;;;;;5.93;5.40;;;;;;;;;;5070327;28;20534;-70
2024/04/07 03:41:10;;;;;;;5.57;5.03;;;;;;;;;;5080622;28;20209;-67
2024/04/07 03:43:36;;;;;;;5.90;5.40;;;;;;;;;;5076998;28;21156;-71
2024/04/07 03:46:03;;;;;;;6.20;5.60;;;;;;;;;;5079678;28;20487;-70
2024/04/07 03:48:29;;;;;;;6.30;5.70;;;;;;;;;;5077628;28;20456;-71
2024/04/07 03:50:56;;;;;;;6.20;5.80;;;;;;;;;;5078584;28;20451;-68
2024/04/07 03:53:22;;;;;;;7.40;6.73;;;;;;;;;;5083098;28;20218;-70
2024/04/07 03:55:48;;;;;;;7.10;6.20;;;;;;;;;;5084183;28;20817;-69
2024/04/07 03:58:15;;;;;;;6.50;5.97;;;;;;;;;;5077570;28;20213;-69
2024/04/07 04:00:41;;;;;;;6.20;5.60;;;;;;;;;;5072902;28;20441;-70
2024/04/07 04:03:07;;;;;;;5.90;5.30;;;;;;;;;;5070270;28;20488;-70
2024/04/07 04:05:33;;;;;;;7.13;5.70;;;;;;;;;;5074067;28;20484;-67
2024/04/07 04:07:59;;;;;;;5.63;5.23;;;;;;;;;;5081860;28;20206;-70
2024/04/07 04:10:25;;;;;;;7.53;5.90;;;;;;;;;;5078047;28;20937;-68
2024/04/07 04:12:51;;;;;;;6.23;5.17;;;;;;;;;;5082045;28;20208;-67
2024/04/07 04:15:19;;;;;;;7.00;5.70;;;;;;;;;;5078700;28;20455;-69
2024/04/07 04:17:44;;;;;;;9.17;6.27;;;;;;;;;;5084589;28;20205;-70
2024/04/07 04:20:11;;;;;;;6.57;5.80;;;;;;;;;;5079797;28;20505;-69
2024/04/07 04:22:36;;;;;;;6.83;5.27;;;;;;;;;;5078802;28;20228;-69
2024/04/07 04:25:03;;;;;;;8.20;6.40;;;;;;;;;;5081714;28;20488;-69
2024/04/07 04:27:29;;;;;;;6.23;5.63;;;;;;;;;;5075611;28;20214;-70
2024/04/07 04:29:55;;;;;;;7.63;5.87;;;;;;;;;;5077174;28;20463;-70
2024/04/07 04:32:22;;;;;;;7.10;6.60;;;;;;;;;;5078256;28;20563;-66
2024/04/07 04:34:49;;;;;;;6.27;5.60;;;;;;;;;;5076329;28;20867;-69
2024/04/07 04:37:15;;;;;;;6.53;6.03;;;;;;;;;;5077944;28;20548;-68
2024/04/07 04:39:41;;;;;;;7.37;6.20;;;;;;;;;;5082251;28;20448;-68
2024/04/07 04:42:06;;;;;;;6.37;5.87;;;;;;;;;;5077417;28;20242;-69
2024/04/07 04:44:33;;;;;;;6.80;6.10;;;;;;;;;;5076865;28;20479;-69
2024/04/07 04:46:58;;;;;;;6.47;5.30;;;;;;;;;;5101160;28;20213;-69
2024/04/07 04:49:26;;;;;;;7.20;5.93;;;;;;;;;;5100288;28;20448;-69
2024/04/07 04:51:53;;;;;;;6.90;6.20;;;;;;;;;;5095730;28;20215;-69
2024/04/07 04:54:20;;;;;;;6.43;6.00;;;;;;;;;;5093349;28;20460;-70
2024/04/07 04:56:45;;;;;;;8.13;6.20;;;;;;;;;;5098691;28;20459;-69
2024/04/07 04:59:11;;;;;;;6.93;6.23;;;;;;;;;;5095678;28;20450;-69
2024/04/07 05:01:37;;;;;;;13.13;6.50;;;;;;;;;;5090703;28;20209;-69
2024/04/07 05:04:04;;;;;;;5.43;4.93;;;;;;;;;;5095789;28;20516;-70
2024/04/07 05:06:31;;;;;;;6.27;5.77;;;;;;;;;;5105665;28;20212;-68
2024/04/07 05:08:57;;;;;;;6.13;5.63;;;;;;;;;;5096227;28;20463;-67
2024/04/07 05:11:23;;;;;;;6.53;5.93;;;;;;;;;;5095029;28;20867;-70
2024/04/07 05:13:50;;;;;;;5.90;5.50;;;;;;;;;;5091633;28;20451;-70
2024/04/07 05:16:15;;;;;;;5.80;5.27;;;;;;;;;;5099275;28;20240;-69
2024/04/07 05:18:42;;;;;;;5.87;5.30;;;;;;;;;;5101333;28;20455;-67
2024/04/07 05:21:08;;;;;;;5.90;5.30;;;;;;;;;;5094755;28;20201;-70
2024/04/07 05:23:39;;;;;;;6.07;5.47;;;;;;;;;;5092653;28;20494;-69
2024/04/07 05:26:07;;;;;;;6.03;5.53;;;;;;;;;;5087676;28;20522;-70
2024/04/07 05:28:34;;;;;;;5.90;5.40;;;;;;;;;;5092070;28;20455;-69
2024/04/07 05:31:02;;;;;;;6.13;5.63;;;;;;;;;;5095872;28;20455;-70
2024/04/07 05:33:30;;;;;;;6.73;5.23;;;;;;;;;;5087906;28;20448;-66
2024/04/07 05:35:55;;;;;;;5.70;5.30;;;;;;;;;;5093340;28;20465;-69
2024/04/07 05:38:21;;;;;;;6.90;6.20;;;;;;;;;;5097395;28;20463;-68
2024/04/07 05:40:53;;;;;;;8.43;5.30;;;;;;;;;;5091528;28;20239;-67
2024/04/07 05:43:19;;;;;;;5.83;5.30;;;;;;;;;;5091553;28;20538;-70
2024/04/07 05:45:45;;;;;;;6.00;5.60;;;;;;;;;;5079532;28;20527;-71
2024/04/07 05:48:11;;;;;;;5.87;5.57;;;;;;;;;;5072048;28;20441;-70
2024/04/07 05:50:36;;;;;;;5.57;5.27;;;;;;;;;;5073526;28;20301;-71
2024/04/07 05:53:03;;;;;;;6.33;5.83;;;;;;;;;;5072070;28;20503;-70
2024/04/07 05:55:29;;;;;;;6.50;5.97;;;;;;;;;;5071038;28;20634;-69
2024/04/07 05:57:57;;;;;;;6.10;5.70;;;;;;;;;;5071720;28;20549;-70
2024/04/07 06:00:23;;;;;;;7.90;6.30;;;;;;;;;;5071254;28;20228;-70
2024/04/07 06:02:49;;;;;;;5.57;5.07;;;;;;;;;;5067506;28;20468;-70
2024/04/07 06:05:16;;;;;;;5.43;4.77;;;;;;;;;;5071528;28;20471;-70
2024/04/07 06:07:41;;;;;;;5.13;4.83;;;;;;;;;;5074105;28;20296;-70
2024/04/07 06:10:08;;;;;;;5.20;4.83;;;;;;;;;;5074578;28;21014;-69
2024/04/07 06:12:33;;;;;;;4.50;4.20;;;;;;;;;;5070779;28;20207;-67
2024/04/07 06:15:01;;;;;;;6.07;5.03;;;;;;;;;;5067716;28;20438;-69
2024/04/07 06:17:27;;;;;;;6.93;4.80;;;;;;;;;;5071585;28;20209;-69
2024/04/07 06:19:53;;;;;;;5.40;4.77;;;;;;;;;;5066892;28;21025;-69
2024/04/07 06:22:19;;;;;;;6.37;4.93;;;;;;;;;;5068951;28;20232;-70
2024/04/07 06:24:45;;;;;;;5.70;5.20;;;;;;;;;;5069339;28;20479;-65
2024/04/07 06:27:11;;;;;;;7.13;5.27;;;;;;;;;;5066896;28;20275;-67
2024/04/07 06:29:38;;;;;;;5.50;5.10;;;;;;;;;;5070832;28;20951;-69
2024/04/07 06:32:05;;;;;;;5.43;5.03;;;;;;;;;;5068566;28;20229;-71
2024/04/07 06:34:32;;;;;;;5.87;5.37;;;;;;;;;;5068375;28;20468;-69
2024/04/07 06:36:57;;;;;;;5.80;5.30;;;;;;;;;;5069748;28;20491;-69
2024/04/07 06:39:23;;;;;;;4.97;4.67;;;;;;;;;;5071243;28;20456;-70
2024/04/07 06:41:49;;;;;;;5.87;5.30;;;;;;;;;;5071678;28;20198;-70
2024/04/07 06:44:16;;;;;;;5.53;5.13;;;;;;;;;;5071019;28;20452;-70
2024/04/07 06:46:42;;;;;;;5.47;4.97;;;;;;;;;;5076360;28;20234;-69
2024/04/07 06:49:10;;;;;;;5.40;5.10;;;;;;;;;;5084069;28;20492;-69
2024/04/07 06:51:35;;;;;;;5.50;5.17;;;;;;;;;;5082645;28;20201;-67
2024/04/07 06:54:02;;;;;;;5.80;5.23;;;;;;;;;;5076411;28;20468;-69
2024/04/07 06:56:28;;;;;;;6.40;5.40;;;;;;;;;;5077921;28;20930;-69
2024/04/07 06:58:54;;;;;;;5.13;4.73;;;;;;;;;;5075048;28;20466;-70
2024/04/07 07:01:19;;;;;;;5.50;5.00;;;;;;;;;;5076328;28;20988;-67
2024/04/07 07:03:46;;;;;;;5.60;5.20;;;;;;;;;;5074968;28;20551;-70
2024/04/07 07:06:17;;;;;;;4.93;4.30;;;;;;;;;;5075943;28;20230;-70
2024/04/07 07:08:43;;;;;;;5.33;4.40;;;;;;;;;;5076092;28;20827;-70
2024/04/07 07:11:09;;;;;;;5.30;4.40;;;;;;;;;;5075502;28;20432;-70
2024/04/07 07:13:41;;;;;;;5.30;4.90;;;;;;;;;;5076734;28;20436;-67
2024/04/07 07:16:07;;;;;;;5.27;4.67;;;;;;;;;;5075281;28;20454;-70
2024/04/07 07:18:33;;;;;;;5.40;5.10;;;;;;;;;;5077073;28;20519;-68
2024/04/07 07:20:59;;;;;;;4.47;3.87;;;;;;;;;;5076026;28;20650;-69
2024/04/07 07:23:27;;;;;;;5.83;5.33;;;;;;;;;;5076708;28;20447;-70
2024/04/07 07:25:53;;;;;;;6.00;5.50;;;;;;;;;;5076867;28;20222;-67
2024/04/07 07:28:20;;;;;;;6.10;5.50;;;;;;;;;;5077617;28;20452;-68
2024/04/07 07:30:45;;;;;;;6.40;5.20;;;;;;;;;;5074845;28;20467;-68
2024/04/07 07:33:12;;;;;;;5.93;5.33;;;;;;;;;;5077726;28;20436;-68
2024/04/07 07:35:37;;;;;;;5.60;5.20;;;;;;;;;;5076379;28;20210;-70
2024/04/07 07:38:04;;;;;;;5.30;4.97;;;;;;;;;;5075304;28;20470;-70
2024/04/07 07:40:31;;;;;;;5.23;4.83;;;;;;;;;;5075408;28;20207;-69
2024/04/07 07:42:57;;;;;;;7.80;5.10;;;;;;;;;;5075540;28;20488;-68
2024/04/07 07:45:23;;;;;;;7.20;5.20;;;;;;;;;;5079994;28;20523;-66
2024/04/07 07:47:53;;;;;;;5.70;5.17;;;;;;;;;;5090066;28;21180;-69
2024/04/07 07:50:18;;;;;;;6.90;5.10;;;;;;;;;;5093106;28;20197;-69
2024/04/07 07:52:45;;;;;;;5.60;5.07;;;;;;;;;;5091014;28;20445;-66
2024/04/07 07:55:11;;;;;;;6.63;6.17;;;;;;;;;;5093617;28;20201;-70
2024/04/07 07:57:39;;;;;;;5.67;4.80;;;;;;;;;;5094792;28;20451;-67
2024/04/07 08:00:05;;;;;;;6.13;5.40;;;;;;;;;;5095265;28;20810;-68
2024/04/07 08:02:32;;;;;;;5.93;5.30;;;;;;;;;;5094194;28;20459;-68
2024/04/07 08:04:58;;;;;;;5.37;4.97;;;;;;;;;;5091076;28;20494;-69
2024/04/07 08:07:25;;;;;;;8.23;7.53;;;;;;;;;;5095666;28;20473;-69
2024/04/07 08:09:51;;;;;;;8.40;6.60;;;;;;;;;;5091921;28;20238;-70
2024/04/07 08:12:17;;;;;;;7.10;6.50;;;;;;;;;;5095416;28;20836;-66
2024/04/07 08:14:45;;;;;;;5.97;5.43;;;;;;;;;;5090567;28;20197;-69
2024/04/07 08:17:12;;;;;;;6.33;5.83;;;;;;;;;;5090907;28;20471;-68
2024/04/07 08:19:38;;;;;;;6.40;5.53;;;;;;;;;;5094246;28;20496;-68
2024/04/07 08:22:05;;;;;;;6.83;6.33;;;;;;;;;;5091753;28;20451;-66
2024/04/07 08:24:31;;;;;;;8.30;6.70;;;;;;;;;;5093690;28;20672;-67
2024/04/07 08:26:58;;;;;;;7.10;6.47;;;;;;;;;;5096286;28;20487;-69
2024/04/07 08:29:24;;;;;;;7.50;6.80;;;;;;;;;;5095158;28;20481;-67
2024/04/07 08:31:52;;;;;;;7.13;6.43;;;;;;;;;;5097242;28;20459;-68
2024/04/07 08:34:18;;;;;;;7.27;6.30;;;;;;;;;;5093928;28;20512;-68
2024/04/07 08:36:44;;;;;;;6.70;6.13;;;;;;;;;;5091747;28;20455;-68
2024/04/07 08:39:10;;;;;;;6.20;5.70;;;;;;;;;;5095140;28;20210;-70
2024/04/07 08:41:37;;;;;;;6.93;6.30;;;;;;;;;;5100671;28;20522;-69
2024/04/07 08:44:02;;;;;;;6.20;5.63;;;;;;;;;;5095882;28;20251;-70
2024/04/07 08:46:29;;;;;;;6.40;6.07;;;;;;;;;;5079806;28;20487;-69
2024/04/07 08:48:58;;;;;;;7.00;6.40;;;;;;;;;;5071157;28;20205;-70
2024/04/07 08:51:25;;;;;;;6.13;5.53;;;;;;;;;;5071243;28;20455;-71
2024/04/07 08:53:51;;;;;;;7.40;6.70;;;;;;;;;;5070601;28;20891;-69
2024/04/07 08:56:20;;;;;;;8.90;6.03;;;;;;;;;;5073910;28;20567;-71
2024/04/07 08:58:45;;;;;;;7.33;6.80;;;;;;;;;;5067541;28;20453;-68
2024/04/07 09:01:12;;;;;;;7.87;6.73;;;;;;;;;;5072712;28;20453;-70
2024/04/07 09:03:38;;;;;;;6.80;5.90;;;;;;;;;;5074866;28;20210;-69
2024/04/07 09:06:06;;;;;;;7.00;6.30;;;;;;;;;;5069529;28;20580;-69
2024/04/07 09:08:32;;;;;;;6.80;6.20;;;;;;;;;;5067807;28;21316;-69
2024/04/07 09:10:58;;;;;;;6.70;6.20;;;;;;;;;;5067756;28;20832;-69
2024/04/07 09:13:24;;;;;;;6.50;5.90;;;;;;;;;;5070629;28;20468;-69
2024/04/07 09:15:51;;;;;;;6.30;5.90;;;;;;;;;;5066033;28;21180;-71
2024/04/07 09:18:17;;;;;;;6.63;6.17;;;;;;;;;;5065955;28;20228;-77
2024/04/07 09:20:44;;;;;;;6.00;5.60;;;;;;;;;;5073853;28;20452;-71
2024/04/07 09:23:11;;;;;;;10.93;6.30;;;;;;;;;;5071756;28;20288;-71
2024/04/07 09:25:37;;;;;;;6.50;6.00;;;;;;;;;;5066906;28;20992;-71
2024/04/07 09:28:04;;;;;;;6.33;5.70;;;;;;;;;;5074999;28;20455;-70
2024/04/07 09:30:30;;;;;;;5.60;5.17;;;;;;;;;;5067844;28;20449;-71
2024/04/07 09:32:56;;;;;;;6.33;5.93;;;;;;;;;;5075252;28;20464;-70
2024/04/07 09:35:22;;;;;;;6.00;5.60;;;;;;;;;;5070601;28;20529;-70
2024/04/07 09:37:48;;;;;;;6.30;5.70;;;;;;;;;;5072554;28;20235;-70
2024/04/07 09:40:16;;;;;;;6.60;6.10;;;;;;;;;;5067041;28;20459;-71
2024/04/07 09:42:41;;;;;;;7.10;6.50;;;;;;;;;;5074311;28;20206;-70
2024/04/07 09:45:09;;;;;;;5.97;5.47;;;;;;;;;;5069333;28;20572;-71
2024/04/07 09:47:35;;;;;;;6.73;6.33;;;;;;;;;;5074510;28;20213;-70
2024/04/07 09:50:04;;;;;;;6.33;5.83;;;;;;;;;;5072710;28;20447;-70
2024/04/07 09:52:30;;;;;;;6.17;5.70;;;;;;;;;;5065671;28;20448;-72
2024/04/07 09:55:03;;;;;;;6.83;6.23;;;;;;;;;;5058720;28;20494;-70
2024/04/07 09:57:31;;;;;;;6.03;5.63;;;;;;;;;;5069683;28;21026;-69
2024/04/07 09:59:57;;;;;;;6.57;6.17;;;;;;;;;;5070828;28;20510;-72
2024/04/07 10:02:23;;;;;;;6.10;5.70;;;;;;;;;;5074088;28;20468;-73
2024/04/07 10:04:49;;;;;;;5.87;5.50;;;;;;;;;;5071576;28;20478;-72
2024/04/07 10:07:16;;;;;;;6.53;6.00;;;;;;;;;;5066635;28;20287;-71
2024/04/07 10:09:43;;;;;;;7.33;5.90;;;;;;;;;;5072890;28;20456;-70
2024/04/07 10:12:09;;;;;;;6.10;5.67;;;;;;;;;;5075673;28;20460;-72
2024/04/07 10:14:40;;;;;;;5.90;5.40;;;;;;;;;;5075216;28;20478;-71
2024/04/07 10:17:06;;;;;;;6.40;6.00;;;;;;;;;;5076288;28;20237;-72
2024/04/07 10:19:33;;;;;;;6.53;6.03;;;;;;;;;;5077238;28;20470;-76
2024/04/07 10:22:00;;;;;;;6.30;6.00;;;;;;;;;;5071041;28;20460;-72
2024/04/07 10:24:26;;;;;;;6.40;5.80;;;;;;;;;;5073851;28;20452;-71
2024/04/07 10:26:52;;;;;;;6.47;5.73;;;;;;;;;;5076395;28;20544;-68
2024/04/07 10:29:19;;;;;;;6.73;6.30;;;;;;;;;;5077324;28;20923;-71
2024/04/07 10:31:46;;;;;;;6.93;6.03;;;;;;;;;;5078835;28;20197;-68
2024/04/07 10:34:13;;;;;;;6.33;5.70;;;;;;;;;;5074704;28;20517;-71
2024/04/07 10:36:40;;;;;;;6.00;5.57;;;;;;;;;;5077770;28;20470;-69
2024/04/07 10:39:10;;;;;;;6.10;5.60;;;;;;;;;;5071105;28;20503;-74
2024/04/07 10:41:36;;;;;;;6.17;5.67;;;;;;;;;;5075175;28;20987;-73
2024/04/07 10:44:03;;;;;;;6.10;5.60;;;;;;;;;;5076470;28;20478;-70
2024/04/07 10:46:29;;;;;;;5.93;5.53;;;;;;;;;;5071675;28;20523;-71
2024/04/07 10:48:58;;;;;;;6.13;5.63;;;;;;;;;;5079447;28;20455;-69
2024/04/07 10:51:24;;;;;;;6.47;5.97;;;;;;;;;;5076473;28;20440;-73
2024/04/07 10:53:58;;;;;;;6.20;5.77;;;;;;;;;;5077056;28;20520;-71
2024/04/07 10:56:23;;;;;;;5.90;5.30;;;;;;;;;;5068861;28;20217;-71
2024/04/07 10:58:50;;;;;;;5.43;5.07;;;;;;;;;;5073027;28;20460;-69
2024/04/07 11:01:15;;;;;;;6.00;5.53;;;;;;;;;;5073161;28;20190;-71
2024/04/07 11:03:43;;;;;;;6.20;5.30;;;;;;;;;;5075230;28;20456;-72
2024/04/07 11:06:10;;;;;;;5.67;5.33;;;;;;;;;;5075358;28;20214;-81
2024/04/07 11:08:37;;;;;;;5.83;5.33;;;;;;;;;;5075542;28;20509;-80
2024/04/07 11:11:03;;;;;;;5.60;5.20;;;;;;;;;;5068442;28;20858;-76
2024/04/07 11:13:30;;;;;;;5.60;5.30;;;;;;;;;;5070451;28;20459;-81
2024/04/07 11:15:55;;;;;;;5.30;5.00;;;;;;;;;;5076221;28;20456;-81
2024/04/07 11:18:23;;;;;;;5.60;5.20;;;;;;;;;;5077343;28;20513;-80
2024/04/07 11:20:49;;;;;;;5.33;5.03;;;;;;;;;;5066520;28;20206;-78
2024/04/07 11:23:17;;;;;;;5.93;5.40;;;;;;;;;;5075504;28;20555;-78
2024/04/07 11:25:43;;;;;;;5.80;5.30;;;;;;;;;;5071104;28;20226;-77
2024/04/07 11:28:10;;;;;;;6.47;5.17;;;;;;;;;;5073773;28;20452;-78
2024/04/07 11:30:37;;;;;;;5.90;5.50;;;;;;;;;;5076268;28;20452;-72
2024/04/07 11:33:07;;;;;;;5.70;5.30;;;;;;;;;;5070826;28;20498;-74
2024/04/07 11:35:33;;;;;;;5.57;5.17;;;;;;;;;;5077760;28;20456;-80
2024/04/07 11:38:00;;;;;;;5.80;5.40;;;;;;;;;;5072817;28;20460;-74
2024/04/07 11:40:27;;;;;;;6.03;5.73;;;;;;;;;;5074193;28;20483;-73
2024/04/07 11:42:53;;;;;;;5.60;5.30;;;;;;;;;;5069092;28;20774;-80
2024/04/07 11:45:19;;;;;;;6.03;5.63;;;;;;;;;;5082244;28;20483;-80
2024/04/07 11:47:45;;;;;;;7.90;5.90;;;;;;;;;;5092615;28;20469;-80
2024/04/07 11:50:11;;;;;;;5.50;5.10;;;;;;;;;;5094240;28;20205;-81
2024/04/07 11:52:38;;;;;;;7.53;5.97;;;;;;;;;;5098001;28;20438;-79
2024/04/07 11:55:05;;;;;;;6.80;6.40;;;;;;;;;;5086790;28;20268;-81
2024/04/07 11:57:32;;;;;;;6.23;5.83;;;;;;;;;;5098834;28;20443;-80
2024/04/07 11:59:59;;;;;;;5.77;5.20;;;;;;;;;;5092854;28;20447;-78
2024/04/07 12:02:25;;;;;;;5.70;5.20;;;;;;;;;;5094235;28;20542;-76
2024/04/07 12:04:51;;;;;;;6.50;5.90;;;;;;;;;;5097450;28;21022;-79
2024/04/07 12:07:17;;;;;;;6.07;5.47;;;;;;;;;;5092071;28;20226;-78
2024/04/07 12:09:44;;;;;;;5.60;5.20;;;;;;;;;;5096070;28;20504;-77
2024/04/07 12:12:09;;;;;;;5.80;5.20;;;;;;;;;;5096028;28;20666;-78
2024/04/07 12:14:37;;;;;;;5.60;5.20;;;;;;;;;;5096235;28;20473;-77
2024/04/07 12:17:04;;;;;;;5.13;4.93;;;;;;;;;;5091005;28;20209;-77
2024/04/07 12:19:30;;;;;;;5.40;5.10;;;;;;;;;;5099028;28;20475;-77
2024/04/07 12:21:57;;;;;;;5.33;5.03;;;;;;;;;;5099563;28;20466;-78
2024/04/07 12:24:24;;;;;;;5.43;4.93;;;;;;;;;;5088384;28;20486;-78
2024/04/07 12:26:50;;;;;;;5.70;5.20;;;;;;;;;;5092533;28;20800;-75
2024/04/07 12:29:17;;;;;;;5.20;4.90;;;;;;;;;;5083623;28;20455;-78
2024/04/07 12:31:44;;;;;;;6.80;5.10;;;;;;;;;;5089975;28;20500;-76
2024/04/07 12:34:10;;;;;;;5.50;5.00;;;;;;;;;;5091500;28;20470;-75
2024/04/07 12:36:36;;;;;;;4.93;4.57;;;;;;;;;;5092408;28;20664;-76
2024/04/07 12:39:04;;;;;;;6.20;5.60;;;;;;;;;;5095102;28;20447;-75
2024/04/07 12:41:30;;;;;;;5.77;5.23;;;;;;;;;;5097761;28;20212;-77
2024/04/07 12:43:56;;;;;;;6.37;5.80;;;;;;;;;;5090237;28;20465;-77
2024/04/07 12:46:22;;;;;;;5.60;5.20;;;;;;;;;;5083099;28;20245;-76
2024/04/07 12:48:50;;;;;;;5.23;4.90;;;;;;;;;;5068020;28;20811;-78
2024/04/07 12:51:16;;;;;;;6.00;5.50;;;;;;;;;;5078869;28;20613;-78
2024/04/07 12:53:42;;;;;;;5.40;5.20;;;;;;;;;;5077982;28;20439;-78
2024/04/07 12:56:09;;;;;;;5.90;5.50;;;;;;;;;;5074659;28;20202;-77
2024/04/07 12:58:36;;;;;;;5.70;5.30;;;;;;;;;;5075533;28;20513;-76
2024/04/07 13:01:01;;;;;;;6.10;5.60;;;;;;;;;;5073529;28;20463;-78
2024/04/07 13:03:28;;;;;;;5.33;5.03;;;;;;;;;;5072897;28;20459;-78
2024/04/07 13:05:56;;;;;;;5.63;5.00;;;;;;;;;;5075665;28;20221;-75
2024/04/07 13:08:23;;;;;;;5.30;5.00;;;;;;;;;;5073060;28;20608;-75
2024/04/07 13:10:48;;;;;;;5.30;5.00;;;;;;;;;;5062152;28;20469;-77
2024/04/07 13:13:15;;;;;;;5.70;5.30;;;;;;;;;;5076815;28;20520;-76
2024/04/07 13:15:40;;;;;;;5.20;4.90;;;;;;;;;;5075734;28;20209;-78
2024/04/07 13:18:07;;;;;;;5.60;5.30;;;;;;;;;;5074769;28;20459;-75
2024/04/07 13:20:33;;;;;;;5.53;5.23;;;;;;;;;;5075161;28;20272;-76
2024/04/07 13:23:01;;;;;;;5.53;5.23;;;;;;;;;;5069766;28;20459;-77
2024/04/07 13:25:27;;;;;;;6.43;5.93;;;;;;;;;;5073537;28;20263;-78
2024/04/07 13:27:53;;;;;;;5.23;4.93;;;;;;;;;;5069231;28;20492;-73
2024/04/07 13:30:19;;;;;;;6.00;5.60;;;;;;;;;;5067054;28;20233;-76
2024/04/07 13:32:45;;;;;;;5.73;5.23;;;;;;;;;;5078132;28;20460;-77
2024/04/07 13:35:12;;;;;;;5.57;5.17;;;;;;;;;;5076293;28;20271;-76
2024/04/07 13:37:39;;;;;;;6.40;5.90;;;;;;;;;;5073752;28;20491;-77
2024/04/07 13:40:08;;;;;;;6.20;5.77;;;;;;;;;;5075735;28;20464;-77
2024/04/07 13:42:34;;;;;;;5.57;5.27;;;;;;;;;;5074401;28;20444;-78
2024/04/07 13:45:00;;;;;;;6.00;5.50;;;;;;;;;;5072856;28;20541;-76
2024/04/07 13:47:27;;;;;;;6.20;5.70;;;;;;;;;;5093497;28;20520;-72
2024/04/07 13:49:52;;;;;;;5.70;5.30;;;;;;;;;;5092711;28;20463;-75
2024/04/07 13:52:19;;;;;;;5.40;5.10;;;;;;;;;;5089653;28;20863;-77
2024/04/07 13:54:44;;;;;;;9.90;5.80;;;;;;;;;;5095954;28;20205;-74
2024/04/07 13:57:12;;;;;;;5.77;5.47;;;;;;;;;;5088380;28;20456;-73
2024/04/07 13:59:38;;;;;;;5.40;5.10;;;;;;;;;;5089809;28;20251;-76
2024/04/07 14:02:05;;;;;;;6.63;6.23;;;;;;;;;;5094199;28;20454;-75
2024/04/07 14:04:30;;;;;;;5.83;5.50;;;;;;;;;;5093139;28;20402;-74
2024/04/07 14:06:56;;;;;;;6.30;5.90;;;;;;;;;;5093405;28;20485;-75
2024/04/07 14:09:24;;;;;;;6.13;5.43;;;;;;;;;;5095104;28;20670;-77
2024/04/07 14:11:50;;;;;;;5.70;5.30;;;;;;;;;;5091863;28;20483;-75
2024/04/07 14:14:17;;;;;;;5.80;5.50;;;;;;;;;;5102157;28;20541;-71
2024/04/07 14:16:44;;;;;;;5.60;5.20;;;;;;;;;;5093953;28;20486;-76
2024/04/07 14:19:09;;;;;;;5.93;5.63;;;;;;;;;;5097163;28;20466;-75
2024/04/07 14:21:38;;;;;;;6.50;6.00;;;;;;;;;;5093433;28;20853;-77
2024/04/07 14:24:04;;;;;;;11.03;5.93;;;;;;;;;;5092584;28;20730;-77
2024/04/07 14:26:30;;;;;;;6.03;5.53;;;;;;;;;;5094286;28;20512;-75
2024/04/07 14:28:56;;;;;;;5.90;5.47;;;;;;;;;;5081459;28;20581;-77
2024/04/07 14:31:24;;;;;;;5.30;5.00;;;;;;;;;;5093211;28;20443;-77
2024/04/07 14:33:50;;;;;;;6.10;5.80;;;;;;;;;;5093074;28;20259;-77
2024/04/07 14:36:16;;;;;;;5.37;5.07;;;;;;;;;;5097093;28;20439;-77
2024/04/07 14:38:42;;;;;;;5.70;5.20;;;;;;;;;;5086948;28;20304;-76
2024/04/07 14:41:08;;;;;;;5.43;5.07;;;;;;;;;;5094498;28;20515;-75